Time;durP1;ratioP1;P1;durP2;ratioP2;P2;SDS_P1;SDS_P2;PMS_P1;PMS_P2;Temp;Humidity;BMP_temperature;BMP_pressure;BME280_temperature;BME280_humidity;BME280_pressure;Samples;Min_cycle;Max_cycle;Signal;HPM_P1;HPM_P2
2022/03/19 00:01:18;;;;;;;;;;;;;;;0.77;43.97;102034.47;3145492;28;19924;-65
2022/03/19 00:02:50;;;;;;;;;;;;;;;0.80;44.06;102034.56;3146038;28;19928;-66
2022/03/19 00:04:22;;;;;;;;;;;;;;;0.81;44.02;102038.88;3145445;28;19930;-66
2022/03/19 00:05:53;;;;;;;;;;;;;;;0.82;44.00;102032.94;3144310;28;20466;-66
2022/03/19 00:07:26;;;;;;;;;;;;;;;0.84;43.98;102029.59;3145621;28;20459;-66
2022/03/19 00:08:58;;;;;;;;;;;;;;;0.86;44.04;102025.38;3145738;28;19938;-66
2022/03/19 00:10:31;;;;;;;;;;;;;;;0.89;44.25;102029.75;3145445;28;20066;-66
2022/03/19 00:12:03;;;;;;;;;;;;;;;0.89;44.17;102029.75;3145226;28;20348;-66
2022/03/19 00:13:35;;;;;;;;;;;;;;;0.91;44.36;102022.94;3145273;28;19924;-66
2022/03/19 00:15:07;;;;;;;;;;;;;;;0.95;44.37;102029.03;3145534;28;20413;-66
2022/03/19 00:16:39;;;;;;;;;;;;;;;0.94;44.27;102025.59;3144233;28;19925;-66
2022/03/19 00:18:11;;;;;;;;;;;;;;;0.97;44.50;102020.56;3145274;28;19930;-66
2022/03/19 00:19:42;;;;;;;;;;;;;;;0.97;44.30;102027.38;3146361;28;20334;-65
2022/03/19 00:21:14;;;;;;;;;;;;;;;0.98;44.30;102024.00;3147801;28;20316;-65
2022/03/19 00:22:45;;;;;;;;;;;;;;;0.99;44.46;102018.91;3146474;28;19978;-65
2022/03/19 00:24:17;;;;;;;;;;;;;;;1.00;44.37;102018.06;3145103;28;19923;-65
2022/03/19 00:25:50;;;;;;;;;;;;;;;1.01;44.67;102024.97;3146013;28;19925;-66
2022/03/19 00:27:21;;;;;;;;;;;;;;;1.03;44.37;102017.31;3142359;28;19974;-66
2022/03/19 00:28:52;;;;;;;;;;;;;;;1.04;44.66;102016.50;3144670;28;19920;-66
2022/03/19 00:30:24;;;;;;;;;;;;;;;1.03;44.55;102018.16;3145283;28;19924;-65
2022/03/19 00:31:55;;;;;;;;;;;;;;;1.04;44.67;102011.38;3145607;28;19924;-66
2022/03/19 00:33:27;;;;;;;;;;;;;;;0.90;44.56;101995.56;3145068;28;19924;-65
2022/03/19 00:34:58;;;;;;;;;;;;;;;1.04;44.61;102014.78;3144781;28;19924;-65
2022/03/19 00:36:30;;;;;;;;;;;;;;;1.05;44.67;102011.41;3146887;28;19924;-66
2022/03/19 00:38:04;;;;;;;;;;;;;;;1.05;44.60;102019.09;3145083;28;19924;-66
2022/03/19 00:39:35;;;;;;;;;;;;;;;1.05;44.73;102011.41;3145731;28;20004;-66
2022/03/19 00:41:08;;;;;;;;;;;;;;;1.06;44.73;102023.38;3145068;28;19924;-65
2022/03/19 00:42:40;;;;;;;;;;;;;;;1.06;44.73;102013.13;3145026;28;19920;-65
2022/03/19 00:44:12;;;;;;;;;;;;;;;1.06;44.65;102018.25;3145125;28;20355;-65
2022/03/19 00:45:43;;;;;;;;;;;;;;;1.07;44.83;102019.16;3145752;28;19985;-65
2022/03/19 00:47:15;;;;;;;;;;;;;;;1.07;44.71;102020.00;3143594;28;19924;-65
2022/03/19 00:48:47;;;;;;;;;;;;;;;1.08;44.89;102024.31;3145341;28;20328;-65
2022/03/19 00:50:18;;;;;;;;;;;;;;;1.07;44.86;102020.00;3147199;28;19971;-65
2022/03/19 00:51:50;;;;;;;;;;;;;;;1.05;45.02;102021.66;3145153;28;19921;-66
2022/03/19 00:53:21;;;;;;;;;;;;;;;1.07;44.78;102014.88;3145524;28;19946;-65
2022/03/19 00:54:53;;;;;;;;;;;;;;;1.08;44.82;102021.75;3147083;28;20450;-65
2022/03/19 00:56:26;;;;;;;;;;;;;;;1.09;44.84;102018.34;3144170;28;19921;-65
2022/03/19 00:57:57;;;;;;;;;;;;;;;1.10;45.10;102014.97;3144652;28;19982;-65
2022/03/19 00:59:29;;;;;;;;;;;;;;;1.10;45.06;102020.09;3146632;28;19919;-65
2022/03/19 01:01:01;;;;;;;;;;;;;;;1.12;44.91;102023.59;3144086;28;20332;-65
2022/03/19 01:02:32;;;;;;;;;;;;;;;1.12;45.01;102013.34;3146163;28;19921;-65
2022/03/19 01:04:04;;;;;;;;;;;;;;;1.14;45.20;102008.22;3144996;28;20006;-66
2022/03/19 01:05:36;;;;;;;;;;;;;;;1.14;45.21;102011.66;3146028;28;19920;-65
2022/03/19 01:07:07;;;;;;;;;;;;;;;1.14;45.23;102014.22;3144970;28;19931;-65
2022/03/19 01:08:39;;;;;;;;;;;;;;;1.16;45.24;102015.97;3144219;28;19920;-65
2022/03/19 01:10:12;;;;;;;;;;;;;;;1.14;45.17;102011.66;3145761;28;19973;-66
2022/03/19 01:11:45;;;;;;;;;;;;;;;1.16;45.06;102014.28;3143232;28;20068;-66
2022/03/19 01:13:17;;;;;;;;;;;;;;;1.16;45.36;102014.28;3144681;28;20386;-65
2022/03/19 01:14:48;;;;;;;;;;;;;;;1.14;45.38;102015.94;3144287;28;19935;-65
2022/03/19 01:16:20;;;;;;;;;;;;;;;1.14;45.33;102015.94;3145099;28;19985;-65
2022/03/19 01:17:52;;;;;;;;;;;;;;;1.13;45.42;102014.19;3144613;28;19928;-65
2022/03/19 01:21:09;;;;;;;;;;;;;;;1.10;45.53;102009.84;3141589;28;20349;-65
2022/03/19 01:22:41;;;;;;;;;;;;;;;1.11;45.77;102015.84;3144750;28;19920;-65
2022/03/19 01:24:13;;;;;;;;;;;;;;;1.10;45.70;102014.97;3144596;28;19927;-66
2022/03/19 01:25:44;;;;;;;;;;;;;;;1.09;45.65;102020.91;3144827;28;20305;-66
2022/03/19 01:27:17;;;;;;;;;;;;;;;1.08;45.86;102011.47;3145405;28;20347;-65
2022/03/19 01:28:49;;;;;;;;;;;;;;;1.07;45.82;102020.00;3144393;28;20398;-65
2022/03/19 01:30:22;;;;;;;;;;;;;;;1.07;45.94;102016.59;3145261;28;19924;-65
2022/03/19 01:31:53;;;;;;;;;;;;;;;1.03;46.12;102015.59;3145001;28;19930;-65
2022/03/19 01:33:24;;;;;;;;;;;;;;;1.01;46.19;102011.28;3145617;28;20360;-65
2022/03/19 01:34:55;;;;;;;;;;;;;;;0.99;46.19;102006.09;3144308;28;19927;-65
2022/03/19 01:36:26;;;;;;;;;;;;;;;0.97;46.35;102007.72;3145283;28;19924;-65
2022/03/19 01:37:58;;;;;;;;;;;;;;;0.95;46.28;102003.38;3144609;28;19939;-65
2022/03/19 01:39:29;;;;;;;;;;;;;;;0.93;46.37;101999.91;3144465;28;19951;-65
2022/03/19 01:41:01;;;;;;;;;;;;;;;0.90;46.83;102001.56;3145527;28;20008;-65
2022/03/19 01:42:34;;;;;;;;;;;;;;;0.88;46.58;101999.75;3144325;28;19978;-65
2022/03/19 01:44:06;;;;;;;;;;;;;;;0.85;46.79;101997.09;3144759;28;20254;-65
2022/03/19 01:45:38;;;;;;;;;;;;;;;0.83;46.71;102002.22;3144565;28;20008;-66
2022/03/19 01:47:10;;;;;;;;;;;;;;;0.66;46.80;101981.16;3143393;28;19920;-66
2022/03/19 01:48:41;;;;;;;;;;;;;;;0.80;46.98;102001.22;3144937;28;19939;-66
2022/03/19 01:50:13;;;;;;;;;;;;;;;0.78;47.22;102000.31;3145621;28;19981;-66
2022/03/19 01:51:44;;;;;;;;;;;;;;;0.76;47.12;101996.84;3144237;28;19932;-65
2022/03/19 01:53:15;;;;;;;;;;;;;;;0.74;47.31;101993.34;3144565;28;20328;-66
2022/03/19 01:54:47;;;;;;;;;;;;;;;0.69;47.33;101995.78;3144512;28;19921;-66
2022/03/19 01:56:19;;;;;;;;;;;;;;;0.66;47.63;102001.69;3144238;28;19997;-66
2022/03/19 01:57:52;;;;;;;;;;;;;;;0.66;47.74;102003.38;3143911;28;20535;-66
2022/03/19 01:59:24;;;;;;;;;;;;;;;0.63;47.60;102001.59;3145465;28;19924;-66
2022/03/19 02:00:58;;;;;;;;;;;;;;;0.61;47.61;101999.81;3144611;28;19927;-66
2022/03/19 02:02:29;;;;;;;;;;;;;;;0.58;47.73;102002.28;3144892;28;19920;-66
2022/03/19 02:04:00;;;;;;;;;;;;;;;0.57;47.73;101997.97;3145101;28;20007;-66
2022/03/19 02:05:32;;;;;;;;;;;;;;;0.57;47.70;101995.41;3144191;28;19992;-66
2022/03/19 02:07:03;;;;;;;;;;;;;;;0.56;47.89;102001.34;3145387;28;19924;-66
2022/03/19 02:08:35;;;;;;;;;;;;;;;0.54;47.87;101998.75;3144331;28;20308;-66
2022/03/19 02:10:07;;;;;;;;;;;;;;;0.54;47.96;101995.31;3144794;28;19927;-66
2022/03/19 02:11:38;;;;;;;;;;;;;;;0.52;47.84;101992.69;3143845;28;19928;-66
2022/03/19 02:13:11;;;;;;;;;;;;;;;0.52;48.02;101992.69;3143961;28;20026;-66
2022/03/19 02:14:44;;;;;;;;;;;;;;;0.51;48.10;102000.34;3144476;28;19925;-66
2022/03/19 02:16:16;;;;;;;;;;;;;;;0.47;48.16;101999.38;3147856;28;19920;-66
2022/03/19 02:17:47;;;;;;;;;;;;;;;0.41;48.25;102001.75;3147635;28;19921;-65
2022/03/19 02:19:19;;;;;;;;;;;;;;;0.39;48.40;102003.41;3146550;28;20289;-65
2022/03/19 02:20:55;;;;;;;;;;;;;;;0.37;48.33;102005.91;3146868;28;19927;-66
2022/03/19 02:22:27;;;;;;;;;;;;;;;0.37;48.25;102002.47;3146153;28;20561;-66
2022/03/19 02:25:48;;;;;;;;;;;;;;;0.32;48.88;102004.00;3146911;28;19921;-66
2022/03/19 02:27:20;;;;;;;;;;;;;;;0.31;48.60;101999.72;3147187;28;19945;-66
2022/03/19 02:28:51;;;;;;;;;;;;;;;0.32;48.84;102009.13;3146053;28;19921;-66
2022/03/19 02:30:23;;;;;;;;;;;;;;;0.31;48.65;102008.28;3149166;28;19931;-66
2022/03/19 02:31:56;;;;;;;;;;;;;;;0.31;48.88;102003.16;3148358;28;19924;-65
2022/03/19 02:33:27;;;;;;;;;;;;;;;0.33;48.79;102008.34;3145662;28;20806;-66
2022/03/19 02:34:59;;;;;;;;;;;;;;;0.33;48.87;102000.66;3146977;28;20506;-66
2022/03/19 02:36:29;;;;;;;;;;;;;;;0.32;48.84;101999.75;3146703;28;19930;-66
2022/03/19 02:38:01;;;;;;;;;;;;;;;0.33;48.89;102001.50;3147306;28;20405;-65
2022/03/19 02:39:33;;;;;;;;;;;;;;;0.33;48.88;102001.50;3146528;28;19921;-65
2022/03/19 02:41:05;;;;;;;;;;;;;;;0.34;48.92;101998.13;3146795;28;19932;-65
2022/03/19 02:42:36;;;;;;;;;;;;;;;0.35;48.91;102002.41;3146408;28;19943;-66
2022/03/19 02:44:09;;;;;;;;;;;;;;;0.36;48.98;101990.50;3146563;28;19925;-66
2022/03/19 02:45:41;;;;;;;;;;;;;;;0.36;49.17;101996.47;3147041;28;19926;-66
2022/03/19 02:47:13;;;;;;;;;;;;;;;0.37;49.21;101994.78;3146086;28;19920;-66
2022/03/19 02:48:44;;;;;;;;;;;;;;;0.37;49.23;101999.91;3148076;28;20147;-66
2022/03/19 02:50:15;;;;;;;;;;;;;;;0.20;49.32;101974.59;3146296;28;20405;-65
2022/03/19 02:51:47;;;;;;;;;;;;;;;0.37;49.47;101998.22;3147000;28;20090;-65
2022/03/19 02:53:19;;;;;;;;;;;;;;;0.38;49.22;101997.38;3145455;28;19924;-65
2022/03/19 02:54:52;;;;;;;;;;;;;;;0.38;49.28;101999.94;3146778;28;20258;-66
2022/03/19 02:56:24;;;;;;;;;;;;;;;0.41;49.33;101996.59;3146225;28;19925;-65
2022/03/19 02:57:55;;;;;;;;;;;;;;;0.41;49.34;101999.19;3146652;28;19986;-66
2022/03/19 02:59:28;;;;;;;;;;;;;;;0.42;49.38;102003.50;3148907;28;19932;-66
2022/03/19 03:00:59;;;;;;;;;;;;;;;0.42;49.36;102000.94;3146852;28;20277;-66
2022/03/19 03:02:30;;;;;;;;;;;;;;;0.41;49.49;102000.06;3146062;28;19920;-66
2022/03/19 03:04:02;;;;;;;;;;;;;;;0.41;49.65;102006.88;3148085;28;19920;-66
2022/03/19 03:05:34;;;;;;;;;;;;;;;0.42;49.48;102003.50;3146088;28;20618;-66
2022/03/19 03:07:06;;;;;;;;;;;;;;;0.42;49.73;102003.50;3145740;28;20394;-66
2022/03/19 03:08:37;;;;;;;;;;;;;;;0.42;49.55;102008.63;3146037;28;20451;-66
2022/03/19 03:10:10;;;;;;;;;;;;;;;0.42;49.72;102006.06;3144645;28;20246;-66
2022/03/19 03:11:42;;;;;;;;;;;;;;;0.42;49.59;102006.94;3146676;28;19920;-66
2022/03/19 03:13:13;;;;;;;;;;;;;;;0.42;49.75;102006.94;3145987;28;19924;-66
2022/03/19 03:14:45;;;;;;;;;;;;;;;0.42;49.78;102000.94;3147060;28;19923;-67
2022/03/19 03:16:16;;;;;;;;;;;;;;;0.42;49.84;102006.06;3145828;28;19920;-66
2022/03/19 03:17:47;;;;;;;;;;;;;;;0.41;49.90;102009.44;3146732;28;19931;-66
2022/03/19 03:19:20;;;;;;;;;;;;;;;0.41;49.81;102004.28;3145077;28;20065;-66
2022/03/19 03:20:51;;;;;;;;;;;;;;;0.40;49.90;102007.69;3143506;28;19940;-66
2022/03/19 03:22:23;;;;;;;;;;;;;;;0.40;49.99;102007.69;3147681;28;20005;-66
2022/03/19 03:23:55;;;;;;;;;;;;;;;0.41;50.14;102009.44;3145924;28;19928;-66
2022/03/19 03:25:28;;;;;;;;;;;;;;;0.40;49.97;102008.56;3146648;28;19921;-66
2022/03/19 03:26:59;;;;;;;;;;;;;;;0.40;49.91;102002.56;3145142;28;19928;-66
2022/03/19 03:28:31;;;;;;;;;;;;;;;0.40;50.23;102005.13;3147471;28;19927;-66
2022/03/19 03:30:02;;;;;;;;;;;;;;;0.42;50.14;102011.19;3145531;28;19936;-66
2022/03/19 03:31:34;;;;;;;;;;;;;;;0.41;50.22;102006.88;3147174;28;20009;-65
2022/03/19 03:33:06;;;;;;;;;;;;;;;0.41;50.27;101999.19;3145878;28;20254;-66
2022/03/19 03:34:39;;;;;;;;;;;;;;;0.42;50.17;102000.94;3146058;28;19921;-66
2022/03/19 03:36:11;;;;;;;;;;;;;;;0.43;50.12;101997.53;3145597;28;19935;-66
2022/03/19 03:37:43;;;;;;;;;;;;;;;0.44;50.06;102001.84;3145952;28;19920;-66
2022/03/19 03:39:14;;;;;;;;;;;;;;;0.45;50.24;102001.03;3146180;28;20010;-66
2022/03/19 03:40:47;;;;;;;;;;;;;;;0.45;50.12;102004.47;3145788;28;19946;-66
2022/03/19 03:42:19;;;;;;;;;;;;;;;0.45;50.20;101998.47;3146251;28;19924;-66
2022/03/19 03:43:50;;;;;;;;;;;;;;;0.47;50.02;101994.22;3144597;28;19920;-66
2022/03/19 03:45:22;;;;;;;;;;;;;;;0.49;50.12;102002.84;3144916;28;20414;-66
2022/03/19 03:46:52;;;;;;;;;;;;;;;0.49;50.06;102002.00;3145487;28;19924;-67
2022/03/19 03:48:24;;;;;;;;;;;;;;;0.49;50.21;102005.41;3146218;28;20378;-67
2022/03/19 03:49:56;;;;;;;;;;;;;;;0.50;49.95;102004.59;3145038;28;19924;-67
2022/03/19 03:51:27;;;;;;;;;;;;;;;0.51;49.88;102005.47;3145483;28;20385;-67
2022/03/19 03:52:59;;;;;;;;;;;;;;;0.52;50.00;101997.81;3146138;28;19993;-67
2022/03/19 03:54:30;;;;;;;;;;;;;;;0.52;49.87;101995.25;3146323;28;19993;-67
2022/03/19 03:56:04;;;;;;;;;;;;;;;0.54;49.94;101995.31;3145427;28;19931;-67
2022/03/19 03:57:34;;;;;;;;;;;;;;;0.55;49.94;102000.47;3147864;28;19920;-67
2022/03/19 03:59:06;;;;;;;;;;;;;;;0.55;49.88;102000.47;3145888;28;19920;-67
2022/03/19 04:00:38;;;;;;;;;;;;;;;0.55;49.70;101997.91;3144813;28;20372;-67
2022/03/19 04:02:09;;;;;;;;;;;;;;;0.55;49.77;101995.34;3146915;28;19931;-67
2022/03/19 04:03:41;;;;;;;;;;;;;;;0.55;49.67;101995.34;3145715;28;20371;-66
2022/03/19 04:05:12;;;;;;;;;;;;;;;0.56;49.80;102004.81;3145788;28;19920;-67
2022/03/19 04:06:44;;;;;;;;;;;;;;;0.55;49.78;102003.03;3144333;28;19924;-67
2022/03/19 04:08:16;;;;;;;;;;;;;;;0.56;49.75;102009.94;3146100;28;20227;-66
2022/03/19 04:09:47;;;;;;;;;;;;;;;0.56;49.83;102002.25;3145655;28;19927;-67
2022/03/19 04:11:20;;;;;;;;;;;;;;;0.57;49.83;101998.84;3145884;28;19924;-67
2022/03/19 04:12:52;;;;;;;;;;;;;;;0.57;49.76;102003.97;3142031;28;19927;-66
2022/03/19 04:14:23;;;;;;;;;;;;;;;0.57;49.86;102001.41;3145443;28;19990;-66
2022/03/19 04:15:55;;;;;;;;;;;;;;;0.58;49.78;102005.69;3145670;28;20015;-66
2022/03/19 04:17:26;;;;;;;;;;;;;;;0.58;49.96;102003.13;3145367;28;20413;-67
2022/03/19 04:18:58;;;;;;;;;;;;;;;0.58;49.98;102008.25;3145351;28;20009;-66
2022/03/19 04:20:30;;;;;;;;;;;;;;;0.58;49.78;102002.28;3145676;28;19920;-66
2022/03/19 04:22:01;;;;;;;;;;;;;;;0.58;49.74;102003.13;3145477;28;20366;-66
2022/03/19 04:23:33;;;;;;;;;;;;;;;0.58;49.66;102003.13;3143624;28;19921;-66
2022/03/19 04:25:05;;;;;;;;;;;;;;;0.58;49.87;102000.56;3145891;28;19974;-66
2022/03/19 04:26:38;;;;;;;;;;;;;;;0.59;49.72;102004.91;3147257;28;19928;-66
2022/03/19 04:28:11;;;;;;;;;;;;;;;0.59;49.51;102004.00;3145295;28;19924;-66
2022/03/19 04:29:42;;;;;;;;;;;;;;;0.61;49.59;101999.81;3146580;28;19932;-66
2022/03/19 04:31:14;;;;;;;;;;;;;;;0.61;49.74;102000.66;3145224;28;20471;-66
2022/03/19 04:32:46;;;;;;;;;;;;;;;0.62;49.72;101999.88;3145728;28;19920;-66
2022/03/19 04:34:17;;;;;;;;;;;;;;;0.62;49.63;102001.53;3145254;28;19928;-66
2022/03/19 04:37:38;;;;;;;;;;;;;;;0.64;49.89;101998.19;3145255;28;19925;-66
2022/03/19 04:39:10;;;;;;;;;;;;;;;0.67;49.70;102000.84;3144928;28;20295;-66
2022/03/19 04:40:42;;;;;;;;;;;;;;;0.67;49.72;102005.13;3147524;28;19920;-66
2022/03/19 04:42:16;;;;;;;;;;;;;;;0.69;49.68;102006.03;3145152;28;19920;-66
2022/03/19 04:43:47;;;;;;;;;;;;;;;0.71;49.77;102001.84;3145789;28;19985;-66
2022/03/19 04:45:19;;;;;;;;;;;;;;;0.71;49.58;102006.97;3145091;28;19921;-66
2022/03/19 04:46:51;;;;;;;;;;;;;;;0.72;49.52;102007.84;3146060;28;19927;-66
2022/03/19 04:48:21;;;;;;;;;;;;;;;0.74;49.67;101998.47;3144985;28;19931;-66
2022/03/19 04:49:53;;;;;;;;;;;;;;;0.74;49.45;102011.28;3145963;28;19924;-66
2022/03/19 04:51:28;;;;;;;;;;;;;;;0.75;49.46;102011.34;3144789;28;19920;-66
2022/03/19 04:53:00;;;;;;;;;;;;;;;0.76;49.36;102012.22;3145136;28;20361;-67
2022/03/19 04:54:31;;;;;;;;;;;;;;;0.78;49.42;102008.88;3146916;28;19977;-66
2022/03/19 04:56:03;;;;;;;;;;;;;;;0.79;49.35;102009.75;3146160;28;19921;-66
2022/03/19 04:57:35;;;;;;;;;;;;;;;0.81;49.22;102005.53;3145068;28;19931;-67
2022/03/19 04:59:11;;;;;;;;;;;;;;;0.82;49.20;102008.13;3144795;28;20001;-67
2022/03/19 05:00:43;;;;;;;;;;;;;;;0.83;49.21;102009.91;3145404;28;19999;-66
2022/03/19 05:02:16;;;;;;;;;;;;;;;0.85;49.12;102007.38;3145023;28;20003;-67
2022/03/19 05:03:48;;;;;;;;;;;;;;;0.87;49.20;102018.56;3145467;28;19960;-66
2022/03/19 05:05:24;;;;;;;;;;;;;;;0.86;49.11;102015.13;3144888;28;19920;-66
2022/03/19 05:06:56;;;;;;;;;;;;;;;0.89;48.98;102016.91;3143627;28;19920;-67
2022/03/19 05:08:27;;;;;;;;;;;;;;;0.90;49.04;102019.50;3145934;28;19924;-66
2022/03/19 05:11:47;;;;;;;;;;;;;;;0.96;48.77;102020.53;3145409;28;19928;-66
2022/03/19 05:13:21;;;;;;;;;;;;;;;0.98;48.74;102022.31;3144631;28;20490;-66
2022/03/19 05:14:52;;;;;;;;;;;;;;;1.00;48.66;102020.63;3144647;28;20035;-66
2022/03/19 05:16:24;;;;;;;;;;;;;;;1.03;48.46;102019.88;3145111;28;19924;-66
2022/03/19 05:17:56;;;;;;;;;;;;;;;1.04;48.49;102019.94;3144628;28;19957;-66
2022/03/19 05:19:27;;;;;;;;;;;;;;;1.04;48.42;102019.94;3144604;28;19920;-66
2022/03/19 05:20:59;;;;;;;;;;;;;;;1.08;48.40;102020.88;3145243;28;19924;-66
2022/03/19 05:22:30;;;;;;;;;;;;;;;1.09;48.24;102025.19;3144340;28;19932;-66
2022/03/19 05:24:01;;;;;;;;;;;;;;;1.12;48.19;102026.16;3145524;28;21526;-67
2022/03/19 05:25:32;;;;;;;;;;;;;;;1.14;48.14;102019.34;3142792;28;19920;-67
2022/03/19 05:27:04;;;;;;;;;;;;;;;1.16;48.33;102019.41;3145229;28;20273;-66
2022/03/19 05:28:37;;;;;;;;;;;;;;;1.21;48.00;102014.41;3144432;28;19920;-66
2022/03/19 05:30:08;;;;;;;;;;;;;;;1.24;48.04;102017.06;3145144;28;19924;-67
2022/03/19 05:31:40;;;;;;;;;;;;;;;1.30;47.94;102017.22;3144893;28;20380;-66
2022/03/19 05:33:12;;;;;;;;;;;;;;;1.34;47.86;102016.50;3144701;28;20408;-66
2022/03/19 05:34:43;;;;;;;;;;;;;;;1.40;47.83;102015.81;3144655;28;19932;-66
2022/03/19 05:36:14;;;;;;;;;;;;;;;1.43;47.59;102021.03;3142925;28;20062;-66
2022/03/19 05:37:47;;;;;;;;;;;;;;;1.46;47.61;102024.53;3147242;28;19977;-67
2022/03/19 05:39:18;;;;;;;;;;;;;;;1.50;47.27;102018.66;3144902;28;19924;-66
2022/03/19 05:40:50;;;;;;;;;;;;;;;1.53;47.26;102020.44;3144872;28;20358;-66
2022/03/19 05:42:22;;;;;;;;;;;;;;;1.49;47.10;102009.22;3144492;28;20394;-66
2022/03/19 05:43:55;;;;;;;;;;;;;;;1.58;47.20;102024.00;3145085;28;19932;-67
2022/03/19 05:45:27;;;;;;;;;;;;;;;1.63;46.95;102025.00;3143217;28;19920;-67
2022/03/19 05:46:59;;;;;;;;;;;;;;;1.67;46.91;102019.13;3144386;28;20083;-66
2022/03/19 05:48:30;;;;;;;;;;;;;;;1.73;46.83;102019.28;3144163;28;19920;-66
2022/03/19 05:50:01;;;;;;;;;;;;;;;1.80;46.82;102017.72;3144303;28;19935;-66
2022/03/19 05:51:33;;;;;;;;;;;;;;;1.87;46.71;102021.34;3144975;28;19988;-66
2022/03/19 05:53:04;;;;;;;;;;;;;;;1.92;46.65;102022.31;3143791;28;19924;-66
2022/03/19 05:54:36;;;;;;;;;;;;;;;1.98;46.48;102019.91;3143511;28;19985;-66
2022/03/19 05:56:08;;;;;;;;;;;;;;;2.05;46.31;102020.13;3144407;28;20353;-66
2022/03/19 05:57:40;;;;;;;;;;;;;;;2.13;46.25;102020.31;3144758;28;19935;-65
2022/03/19 05:59:13;;;;;;;;;;;;;;;2.17;46.15;102018.69;3144245;28;20589;-66
2022/03/19 06:00:43;;;;;;;;;;;;;;;2.24;46.25;102018.00;3145313;28;20062;-66
2022/03/19 06:02:15;;;;;;;;;;;;;;;2.32;45.84;102018.19;3144202;28;20025;-66
2022/03/19 06:03:47;;;;;;;;;;;;;;;2.41;45.86;102019.28;3145174;28;19990;-67
2022/03/19 06:05:18;;;;;;;;;;;;;;;2.48;45.68;102013.47;3144243;28;19925;-66
2022/03/19 06:06:49;;;;;;;;;;;;;;;2.56;45.45;102012.75;3144857;28;20350;-67
2022/03/19 06:08:20;;;;;;;;;;;;;;;2.61;45.46;102012.03;3144190;28;20053;-67
2022/03/19 06:09:52;;;;;;;;;;;;;;;2.70;45.28;102013.94;3144395;28;19947;-70
2022/03/19 06:11:24;;;;;;;;;;;;;;;2.80;45.22;102015.00;3144295;28;20391;-69
2022/03/19 06:12:55;;;;;;;;;;;;;;;2.78;44.92;102001.22;3144138;28;19927;-68
2022/03/19 06:14:28;;;;;;;;;;;;;;;2.99;44.98;102016.28;3144112;28;19932;-68
2022/03/19 06:16:00;;;;;;;;;;;;;;;3.10;44.80;102014.81;3143074;28;19924;-69
2022/03/19 06:17:32;;;;;;;;;;;;;;;3.18;44.61;102008.13;3143803;28;19920;-69
2022/03/19 06:19:02;;;;;;;;;;;;;;;3.26;44.44;102016.88;3132175;28;19934;-70
2022/03/19 06:20:34;;;;;;;;;;;;;;;3.31;44.57;102014.38;3137095;28;19954;-67
2022/03/19 06:22:06;;;;;;;;;;;;;;;3.33;44.43;102012.69;3135217;28;20325;-64
2022/03/19 06:23:37;;;;;;;;;;;;;;;3.40;44.29;102014.53;3140592;28;19920;-64
2022/03/19 06:25:09;;;;;;;;;;;;;;;3.44;44.18;102018.94;3135663;28;19986;-65
2022/03/19 06:26:41;;;;;;;;;;;;;;;3.49;44.10;102019.00;3137742;28;19920;-64
2022/03/19 06:28:13;;;;;;;;;;;;;;;3.52;44.03;102014.81;3145097;28;19924;-64
2022/03/19 06:29:46;;;;;;;;;;;;;;;3.55;43.93;102012.28;3144522;28;19920;-65
2022/03/19 06:31:16;;;;;;;;;;;;;;;3.57;43.88;102014.88;3143868;28;20641;-67
2022/03/19 06:32:48;;;;;;;;;;;;;;;3.60;43.92;102014.94;3142065;28;20402;-67
2022/03/19 06:34:20;;;;;;;;;;;;;;;3.65;43.63;102009.03;3145209;28;19920;-67
2022/03/19 06:37:39;;;;;;;;;;;;;;;3.77;43.66;102016.13;3144402;28;20011;-66
2022/03/19 06:39:12;;;;;;;;;;;;;;;3.84;43.47;102020.53;3143402;28;19936;-66
2022/03/19 06:40:44;;;;;;;;;;;;;;;3.91;43.59;102015.53;3143704;28;19974;-66
2022/03/19 06:42:15;;;;;;;;;;;;;;;3.99;43.57;102016.50;3143936;28;19935;-66
2022/03/19 06:43:47;;;;;;;;;;;;;;;4.08;43.40;102017.56;3143945;28;19967;-66
2022/03/19 06:45:20;;;;;;;;;;;;;;;4.18;43.28;102017.69;3144755;28;19985;-67
2022/03/19 06:46:52;;;;;;;;;;;;;;;4.28;43.18;102020.44;3143478;28;20011;-67
2022/03/19 06:48:23;;;;;;;;;;;;;;;4.43;43.15;102018.94;3141624;28;20016;-67
2022/03/19 06:49:55;;;;;;;;;;;;;;;4.60;42.93;102020.06;3144558;28;19920;-67
2022/03/19 06:51:27;;;;;;;;;;;;;;;4.93;42.84;102022.25;3142541;28;19927;-67
2022/03/19 06:52:58;;;;;;;;;;;;;;;5.30;42.46;102011.56;3144215;28;19924;-67
2022/03/19 06:54:30;;;;;;;;;;;;;;;5.74;42.02;102016.31;3145266;28;20350;-67
2022/03/19 06:56:03;;;;;;;;;;;;;;;6.11;41.23;102010.69;3147299;28;19997;-68
2022/03/19 06:57:34;;;;;;;;;;;;;;;6.72;41.10;102015.47;3143477;28;20413;-74
2022/03/19 06:59:06;;;;;;;;;;;;;;;7.25;40.40;102012.28;3143611;28;19946;-74
2022/03/19 07:00:41;;;;;;;;;;;;;;;7.61;39.72;102007.22;3143640;28;20011;-75
2022/03/19 07:02:13;;;;;;;;;;;;;;;7.81;39.13;102005.53;3144253;28;19970;-75
2022/03/19 07:03:43;;;;;;;;;;;;;;;8.36;38.96;102004.66;3146301;28;20366;-76
2022/03/19 07:05:19;;;;;;;;;;;;;;;8.88;37.88;101999.41;3149006;28;20058;-68
2022/03/19 07:06:50;;;;;;;;;;;;;;;9.17;37.20;102003.63;3147448;28;19926;-69
2022/03/19 07:08:22;;;;;;;;;;;;;;;9.28;36.74;101999.25;3147169;28;19929;-70
2022/03/19 07:09:54;;;;;;;;;;;;;;;9.25;36.26;101996.66;3146631;28;19931;-71
2022/03/19 07:11:26;;;;;;;;;;;;;;;9.33;36.05;102006.16;3147288;28;19947;-63
2022/03/19 07:12:58;;;;;;;;;;;;;;;9.63;36.06;102004.28;3145506;28;20480;-68
2022/03/19 07:14:29;;;;;;;;;;;;;;;10.06;35.55;102003.09;3141849;28;19921;-67
2022/03/19 07:16:03;;;;;;;;;;;;;;;10.24;34.78;102006.44;3142538;28;19927;-67
2022/03/19 07:17:34;;;;;;;;;;;;;;;10.31;34.18;102006.41;3141497;28;19936;-67
2022/03/19 07:19:06;;;;;;;;;;;;;;;10.41;34.26;102010.66;3146201;28;20623;-67
2022/03/19 07:20:37;;;;;;;;;;;;;;;10.58;34.31;102003.53;3142641;28;19920;-71
2022/03/19 07:22:09;;;;;;;;;;;;;;;10.96;34.21;102004.88;3147141;28;19935;-73
2022/03/19 07:23:41;;;;;;;;;;;;;;;11.18;33.70;102004.63;3140355;28;19924;-74
2022/03/19 07:25:13;;;;;;;;;;;;;;;11.20;33.16;102000.25;3147286;28;19928;-77
2022/03/19 07:26:44;;;;;;;;;;;;;;;11.13;32.71;101999.47;3146575;28;19931;-75
2022/03/19 07:28:18;;;;;;;;;;;;;;;11.11;32.34;101990.78;3145037;28;19920;-73
2022/03/19 07:29:50;;;;;;;;;;;;;;;11.14;32.35;101996.81;3146654;28;19920;-73
2022/03/19 07:31:23;;;;;;;;;;;;;;;11.12;31.77;101996.00;3146454;28;19971;-73
2022/03/19 07:32:54;;;;;;;;;;;;;;;11.08;31.94;101990.84;3146212;28;19920;-70
2022/03/19 07:34:25;;;;;;;;;;;;;;;11.12;31.96;101996.00;3141832;28;19924;-73
2022/03/19 07:35:57;;;;;;;;;;;;;;;11.41;32.22;101991.28;3148046;28;19920;-76
2022/03/19 07:37:29;;;;;;;;;;;;;;;11.65;31.68;101993.53;3145990;28;19924;-72
2022/03/19 07:39:00;;;;;;;;;;;;;;;11.79;31.57;101996.81;3146685;28;20007;-72
2022/03/19 07:42:21;;;;;;;;;;;;;;;11.81;30.65;101997.66;3146461;28;20412;-69
2022/03/19 07:43:52;;;;;;;;;;;;;;;11.86;30.73;101995.03;3135480;28;19932;-67
2022/03/19 07:45:24;;;;;;;;;;;;;;;11.91;30.84;101987.09;3137248;28;20346;-66
2022/03/19 07:46:57;;;;;;;;;;;;;;;11.87;30.25;101994.13;3137439;28;20653;-66
2022/03/19 07:48:28;;;;;;;;;;;;;;;11.83;29.92;101993.28;3137090;28;20397;-66
2022/03/19 07:50:00;;;;;;;;;;;;;;;11.72;29.61;102002.16;3137360;28;19975;-66
2022/03/19 07:51:32;;;;;;;;;;;;;;;11.82;29.45;101996.75;3136117;28;19924;-67
2022/03/19 07:53:04;;;;;;;;;;;;;;;11.84;29.15;101996.75;3137689;28;20023;-68
2022/03/19 07:54:36;;;;;;;;;;;;;;;11.75;28.75;101996.91;3143435;28;20309;-69
2022/03/19 07:56:08;;;;;;;;;;;;;;;11.65;28.61;102000.50;3146132;28;20450;-69
2022/03/19 07:57:39;;;;;;;;;;;;;;;11.58;28.53;101995.38;3145273;28;19974;-69
2022/03/19 07:59:11;;;;;;;;;;;;;;;11.52;28.42;101995.47;3145674;28;19978;-68
2022/03/19 08:00:41;;;;;;;;;;;;;;;11.54;28.05;101988.50;3144762;28;19985;-68
2022/03/19 08:02:14;;;;;;;;;;;;;;;11.44;28.30;101994.69;3145037;28;19932;-69
2022/03/19 08:03:46;;;;;;;;;;;;;;;11.38;28.13;101992.19;3139394;28;19974;-69
2022/03/19 08:05:18;;;;;;;;;;;;;;;11.30;28.04;101981.00;3142549;28;19921;-69
2022/03/19 08:06:53;;;;;;;;;;;;;;;11.29;28.05;101985.34;3144714;28;19920;-69
2022/03/19 08:08:25;;;;;;;;;;;;;;;11.17;27.85;101993.31;3144975;28;19924;-69